Time;durP1;ratioP1;P1;durP2;ratioP2;P2;SDS_P1;SDS_P2;PMS_P1;PMS_P2;Temp;Humidity;BMP_temperature;BMP_pressure;BME280_temperature;BME280_humidity;BME280_pressure;Samples;Min_cycle;Max_cycle;Signal;HPM_P1;HPM_P2
2021/11/17 02:28:35;;;;;;;30.75;16.42;;;11.20;99.90;;;;;;6244279;23;20499;-77
2021/11/17 02:31:12;;;;;;;32.70;16.05;;;11.20;99.90;;;;;;6245855;22;20011;-77
2021/11/17 02:34:00;;;;;;;29.60;15.85;;;11.20;99.90;;;;;;6244552;23;20587;-77
2021/11/17 02:36:50;;;;;;;27.55;14.43;;;11.20;99.90;;;;;;6244501;23;20529;-76
2021/11/17 02:39:41;;;;;;;28.13;14.90;;;11.20;99.90;;;;;;6244563;23;20365;-76
2021/11/17 02:42:16;;;;;;;26.27;13.75;;;11.20;99.90;;;;;;6223153;23;20062;-77
2021/11/17 02:44:45;;;;;;;24.45;13.70;;;11.20;99.90;;;;;;6244772;23;20079;-76
2021/11/17 02:47:20;;;;;;;23.33;12.60;;;11.10;99.90;;;;;;6246158;23;20004;-77
2021/11/17 02:50:16;;;;;;;34.50;14.73;;;11.10;99.90;;;;;;6245948;23;20004;-77
2021/11/17 02:52:54;;;;;;;23.73;13.38;;;11.10;99.90;;;;;;6220535;23;20336;-77
2021/11/17 02:55:29;;;;;;;24.23;13.45;;;11.20;99.90;;;;;;6244670;23;20058;-76
2021/11/17 02:58:06;;;;;;;21.67;13.27;;;11.10;99.90;;;;;;6246111;23;19996;-76
2021/11/17 03:00:50;;;;;;;24.13;13.18;;;11.20;99.90;;;;;;6244385;23;20336;-76
2021/11/17 03:03:53;;;;;;;27.85;14.15;;;11.10;99.90;;;;;;6244336;23;20039;-77
2021/11/17 03:06:44;;;;;;;26.27;14.43;;;11.20;99.90;;;;;;6246022;23;20011;-76
2021/11/17 03:09:23;;;;;;;26.90;14.82;;;11.10;99.90;;;;;;6244379;23;20078;-76
2021/11/17 03:11:55;;;;;;;26.13;14.98;;;11.10;99.90;;;;;;6218973;23;20031;-77
2021/11/17 03:14:26;;;;;;;30.35;15.63;;;11.10;99.90;;;;;;6245252;23;20001;-77
2021/11/17 03:17:36;;;;;;;25.37;14.57;;;11.10;99.90;;;;;;6245752;23;20462;-76
2021/11/17 03:20:22;;;;;;;30.33;15.18;;;11.10;99.90;;;;;;6186840;22;20008;-77
2021/11/17 03:23:00;;;;;;;26.80;14.05;;;11.10;99.90;;;;;;6245738;22;20023;-76
2021/11/17 03:25:41;;;;;;;27.83;13.95;;;11.10;99.90;;;;;;6245734;23;20001;-76
2021/11/17 03:28:18;;;;;;;29.60;14.57;;;11.10;99.90;;;;;;6245645;23;20014;-77
2021/11/17 03:31:04;;;;;;;22.38;13.60;;;11.10;99.90;;;;;;6245421;23;20012;-77
2021/11/17 03:33:52;;;;;;;23.73;13.57;;;11.10;99.90;;;;;;6224009;23;20008;-77
2021/11/17 03:36:49;;;;;;;27.80;14.88;;;11.10;99.90;;;;;;6245801;22;20007;-77
2021/11/17 03:39:24;;;;;;;25.85;13.93;;;11.10;99.90;;;;;;6244471;23;20047;-77
2021/11/17 03:42:17;;;;;;;25.85;12.95;;;11.10;99.90;;;;;;6244351;23;20058;-76
2021/11/17 03:45:21;;;;;;;23.77;13.32;;;11.10;99.90;;;;;;6244465;23;20004;-76
2021/11/17 03:48:04;;;;;;;24.70;13.57;;;11.10;99.90;;;;;;6265323;22;20004;-77
2021/11/17 03:50:39;;;;;;;25.23;14.80;;;11.10;99.90;;;;;;6245492;23;20015;-77
2021/11/17 03:53:30;;;;;;;25.60;13.52;;;11.10;99.90;;;;;;6245438;23;20027;-76
2021/11/17 03:55:58;;;;;;;28.25;14.48;;;11.10;99.90;;;;;;6243849;23;20008;-77
2021/11/17 03:58:33;;;;;;;25.73;13.80;;;11.10;99.90;;;;;;6245605;23;20564;-77
2021/11/17 04:01:35;;;;;;;29.65;14.07;;;11.10;99.90;;;;;;6245464;22;20027;-76
2021/11/17 04:04:19;;;;;;;26.48;13.27;;;11.10;99.90;;;;;;6123104;23;20038;-76
2021/11/17 04:06:53;;;;;;;22.23;12.85;;;11.10;99.90;;;;;;6231533;23;20386;-77
2021/11/17 04:09:28;;;;;;;26.20;13.82;;;11.10;99.90;;;;;;6243967;23;20451;-77
2021/11/17 04:12:12;;;;;;;25.10;14.48;;;11.10;99.90;;;;;;6245405;23;20087;-77
2021/11/17 04:15:07;;;;;;;23.20;13.63;;;11.10;99.90;;;;;;6245288;23;20663;-77
2021/11/17 04:17:48;;;;;;;23.90;12.77;;;11.10;99.90;;;;;;6243603;23;20032;-76
2021/11/17 04:20:32;;;;;;;28.17;16.33;;;11.10;99.90;;;;;;6242461;23;20004;-77
2021/11/17 04:22:58;;;;;;;30.73;16.77;;;11.00;99.90;;;;;;6244218;23;20000;-77
2021/11/17 04:25:53;;;;;;;32.72;16.60;;;11.10;99.90;;;;;;6245370;22;20082;-77
2021/11/17 04:28:37;;;;;;;43.20;20.15;;;11.10;99.90;;;;;;6224514;23;20149;-77
2021/11/17 04:31:36;;;;;;;43.53;20.75;;;11.10;99.90;;;;;;6222353;23;20019;-77
2021/11/17 04:34:30;;;;;;;45.42;21.38;;;11.10;99.90;;;;;;6247368;23;20070;-77
2021/11/17 04:37:44;;;;;;;54.05;24.30;;;11.10;99.90;;;;;;6220672;23;20062;-77
2021/11/17 04:40:32;;;;;;;51.85;24.58;;;11.10;99.90;;;;;;6238761;22;20007;-77
2021/11/17 04:43:00;;;;;;;56.10;24.60;;;11.00;99.90;;;;;;6245655;23;20007;-77
2021/11/17 04:45:28;;;;;;;50.00;24.08;;;11.10;99.90;;;;;;6247208;23;20000;-77
2021/11/17 04:48:31;;;;;;;52.85;23.42;;;11.10;99.90;;;;;;6245574;23;20004;-77
2021/11/17 04:51:10;;;;;;;54.15;25.00;;;11.10;99.90;;;;;;6247181;22;20036;-77
2021/11/17 04:54:18;;;;;;;56.58;22.95;;;11.10;99.90;;;;;;6221841;23;20028;-77
2021/11/17 04:57:02;;;;;;;54.80;23.67;;;11.00;99.90;;;;;;6246209;23;20027;-77
2021/11/17 05:00:09;;;;;;;55.13;23.08;;;11.00;99.90;;;;;;6246759;22;20046;-77
2021/11/17 05:02:55;;;;;;;45.95;22.48;;;10.90;99.90;;;;;;6225462;23;20046;-76
2021/11/17 05:05:45;;;;;;;45.72;20.52;;;10.90;99.90;;;;;;6245434;23;20000;-77
2021/11/17 05:08:29;;;;;;;36.90;19.67;;;11.00;99.90;;;;;;6246622;23;20000;-77
2021/11/17 05:11:10;;;;;;;41.67;20.30;;;11.00;99.90;;;;;;6244999;23;20086;-77
2021/11/17 05:13:39;;;;;;;43.78;20.38;;;11.00;99.90;;;;;;6246906;23;20332;-77
2021/11/17 05:16:52;;;;;;;39.13;20.90;;;11.00;99.90;;;;;;6245235;23;20011;-77
2021/11/17 05:19:23;;;;;;;47.15;20.95;;;10.90;99.90;;;;;;6212271;22;20436;-77
2021/11/17 05:22:21;;;;;;;48.28;21.33;;;11.00;99.90;;;;;;6246307;23;20502;-77
2021/11/17 05:24:49;;;;;;;43.42;19.98;;;11.00;99.90;;;;;;6189164;22;20008;-77
2021/11/17 05:27:33;;;;;;;46.28;21.45;;;11.00;99.90;;;;;;6244467;23;20004;-76
2021/11/17 05:30:21;;;;;;;52.40;24.27;;;11.00;99.90;;;;;;6245677;22;20391;-77
2021/11/17 05:33:08;;;;;;;49.65;23.05;;;11.00;99.90;;;;;;6246486;23;19996;-77
2021/11/17 05:35:47;;;;;;;46.00;20.27;;;11.00;99.90;;;;;;6246062;23;20479;-77
2021/11/17 05:38:19;;;;;;;44.15;20.63;;;11.00;99.90;;;;;;6246199;22;20466;-77
2021/11/17 05:40:54;;;;;;;43.13;22.13;;;11.00;99.90;;;;;;6245252;23;20344;-77
2021/11/17 05:43:35;;;;;;;40.55;20.35;;;11.00;99.90;;;;;;6245229;23;20004;-77
2021/11/17 05:46:06;;;;;;;41.80;20.88;;;11.00;99.90;;;;;;6244760;23;20424;-76
2021/11/17 05:49:28;;;;;;;43.30;21.45;;;11.00;99.90;;;;;;6246407;23;20011;-77
2021/11/17 05:52:13;;;;;;;35.17;18.70;;;11.00;99.90;;;;;;6124011;23;20045;-77
2021/11/17 05:55:06;;;;;;;39.42;18.33;;;11.00;99.90;;;;;;6233287;23;20452;-76
2021/11/17 05:57:44;;;;;;;45.90;21.33;;;11.00;99.90;;;;;;6245100;23;20031;-77
2021/11/17 06:00:22;;;;;;;40.45;20.33;;;11.00;99.90;;;;;;6244621;23;20004;-76
2021/11/17 06:03:15;;;;;;;42.67;19.08;;;10.90;99.90;;;;;;6244807;23;20000;-77
2021/11/17 06:05:41;;;;;;;41.35;19.73;;;11.00;99.90;;;;;;6244777;23;20083;-77
2021/11/17 06:08:06;;;;;;;38.90;18.58;;;10.90;99.90;;;;;;6244854;23;20042;-77
2021/11/17 06:10:44;;;;;;;38.28;18.45;;;10.90;99.90;;;;;;6244520;23;20058;-77
2021/11/17 06:13:11;;;;;;;40.90;20.45;;;10.90;99.90;;;;;;6246327;22;20022;-77
2021/11/17 06:15:39;;;;;;;44.00;21.60;;;10.90;99.90;;;;;;6246306;22;20030;-77
2021/11/17 06:18:06;;;;;;;43.47;22.60;;;10.90;99.90;;;;;;6246078;22;20009;-77
2021/11/17 06:20:34;;;;;;;44.28;21.27;;;10.90;99.90;;;;;;6245861;22;20000;-77
2021/11/17 06:23:04;;;;;;;43.95;20.85;;;10.90;99.90;;;;;;6246289;22;20451;-77
2021/11/17 06:25:31;;;;;;;44.20;22.15;;;10.90;99.90;;;;;;6246261;22;20000;-77
2021/11/17 06:28:04;;;;;;;41.83;21.10;;;10.90;99.90;;;;;;6246218;22;20080;-77
2021/11/17 06:30:38;;;;;;;51.20;23.08;;;10.90;99.90;;;;;;6245956;22;20032;-77
2021/11/17 06:33:06;;;;;;;51.97;23.85;;;10.80;99.90;;;;;;6244624;23;20362;-77
2021/11/17 06:35:32;;;;;;;60.10;27.02;;;10.90;99.90;;;;;;6244386;23;20010;-77
2021/11/17 06:37:58;;;;;;;59.58;26.85;;;10.90;99.90;;;;;;6244282;23;20412;-77
2021/11/17 06:40:24;;;;;;;67.57;28.42;;;10.90;99.90;;;;;;6245807;23;20086;-77
2021/11/17 06:42:55;;;;;;;62.83;28.23;;;10.90;99.90;;;;;;6246146;22;20010;-77
2021/11/17 06:45:36;;;;;;;61.90;29.30;;;10.90;99.90;;;;;;6246353;22;20091;-77
2021/11/17 06:48:02;;;;;;;71.55;30.60;;;10.90;99.90;;;;;;6244521;23;20004;-77
2021/11/17 06:50:28;;;;;;;62.58;28.25;;;10.90;99.90;;;;;;6245656;22;20011;-77
2021/11/17 06:52:54;;;;;;;68.57;28.95;;;10.90;99.90;;;;;;6245999;22;20490;-77
2021/11/17 06:55:20;;;;;;;68.53;28.52;;;10.90;99.90;;;;;;6245899;22;20000;-77
2021/11/17 06:57:46;;;;;;;62.97;28.60;;;11.00;99.90;;;;;;6245930;23;20000;-77
2021/11/17 07:00:19;;;;;;;63.92;28.38;;;11.00;99.90;;;;;;6244429;23;20004;-77
2021/11/17 07:02:44;;;;;;;;;;;11.00;99.90;;;;;;6246393;22;20043;-77
2021/11/17 07:05:11;;;;;;;58.20;25.90;;;11.00;99.90;;;;;;6246209;23;19974;-77
2021/11/17 07:07:38;;;;;;;59.05;27.65;;;11.00;99.90;;;;;;6244260;23;20095;-77
2021/11/17 07:10:06;;;;;;;66.28;29.10;;;11.00;99.90;;;;;;6244192;23;20061;-77
2021/11/17 07:12:32;;;;;;;65.53;27.60;;;11.00;99.90;;;;;;6245723;22;20003;-77
2021/11/17 07:14:58;;;;;;;68.72;29.80;;;11.00;99.90;;;;;;6245826;23;20332;-77
2021/11/17 07:17:24;;;;;;;73.45;30.33;;;11.00;99.90;;;;;;6244211;23;20019;-77
2021/11/17 07:19:50;;;;;;;68.20;29.55;;;11.00;99.90;;;;;;6244021;23;20000;-77
2021/11/17 07:22:15;;;;;;;63.03;29.77;;;11.00;99.90;;;;;;6245661;22;19996;-77
2021/11/17 07:24:41;;;;;;;73.28;30.73;;;11.00;99.90;;;;;;6244224;23;20000;-77
2021/11/17 07:27:12;;;;;;;69.15;30.15;;;11.00;99.90;;;;;;6245775;23;19996;-77
2021/11/17 07:29:38;;;;;;;76.82;31.17;;;10.90;99.90;;;;;;6244294;23;20294;-77
2021/11/17 07:32:04;;;;;;;74.70;31.58;;;10.90;99.90;;;;;;6245641;22;20436;-77
2021/11/17 07:34:30;;;;;;;86.03;33.22;;;10.90;99.90;;;;;;6244173;23;20334;-77
2021/11/17 07:36:56;;;;;;;82.10;33.28;;;11.00;99.90;;;;;;6245612;23;19996;-77
2021/11/17 07:39:21;;;;;;;79.75;34.30;;;11.00;99.90;;;;;;6245757;22;20454;-77
2021/11/17 07:41:50;;;;;;;88.82;35.22;;;11.00;99.90;;;;;;6246013;22;20004;-77
2021/11/17 07:44:17;;;;;;;81.32;36.65;;;11.10;99.90;;;;;;6244056;23;20005;-77
2021/11/17 07:46:46;;;;;;;82.13;36.28;;;11.10;99.90;;;;;;6245554;22;20092;-77
2021/11/17 07:49:13;;;;;;;89.72;36.25;;;11.10;99.90;;;;;;6245772;22;20075;-77
2021/11/17 07:51:39;;;;;;;90.05;35.88;;;11.10;99.90;;;;;;6245612;22;20004;-76
2021/11/17 07:54:05;;;;;;;96.20;38.50;;;11.00;99.90;;;;;;6245636;23;20032;-77
2021/11/17 07:56:34;;;;;;;83.22;35.97;;;11.00;99.90;;;;;;6245617;22;20082;-76
2021/11/17 07:59:01;;;;;;;85.03;34.42;;;11.10;99.90;;;;;;6245808;22;20001;-77
2021/11/17 08:01:28;;;;;;;81.95;34.83;;;11.10;99.90;;;;;;6246350;22;20008;-76
2021/11/17 08:03:54;;;;;;;84.07;34.03;;;11.10;99.90;;;;;;6246045;23;20034;-77
2021/11/17 08:06:25;;;;;;;88.28;36.22;;;11.20;99.90;;;;;;6247604;22;20067;-76
2021/11/17 08:08:52;;;;;;;81.57;36.25;;;11.20;99.90;;;;;;6247835;22;20047;-76
2021/11/17 08:11:19;;;;;;;92.30;36.10;;;11.20;99.90;;;;;;6245856;23;20010;-77
2021/11/17 08:13:46;;;;;;;86.53;35.38;;;11.30;99.90;;;;;;6247518;22;20000;-76
2021/11/17 08:16:13;;;;;;;80.88;35.25;;;11.30;99.90;;;;;;6247337;22;20004;-77
2021/11/17 08:18:39;;;;;;;87.32;36.50;;;11.30;99.90;;;;;;6247625;22;20004;-76
2021/11/17 08:21:05;;;;;;;79.72;35.33;;;11.30;99.90;;;;;;6245911;23;20028;-77
2021/11/17 08:23:31;;;;;;;91.90;36.92;;;11.30;99.90;;;;;;6247661;22;20012;-77
2021/11/17 08:25:57;;;;;;;86.15;35.10;;;11.30;99.90;;;;;;6247457;22;20546;-76
2021/11/17 08:28:23;;;;;;;83.57;35.22;;;11.30;99.90;;;;;;6247509;22;20012;-77
2021/11/17 08:30:50;;;;;;;83.35;33.92;;;11.20;99.90;;;;;;6247342;22;20004;-76
2021/11/17 08:33:18;;;;;;;81.38;34.40;;;11.20;99.90;;;;;;6247671;22;19996;-76
2021/11/17 08:35:44;;;;;;;81.78;33.83;;;11.20;99.90;;;;;;6247516;22;20011;-76
2021/11/17 08:38:14;;;;;;;80.75;35.75;;;11.30;99.90;;;;;;6247605;22;20412;-76
2021/11/17 08:40:43;;;;;;;90.40;35.10;;;11.30;99.90;;;;;;6247364;22;20007;-76
2021/11/17 08:43:09;;;;;;;77.57;34.65;;;11.30;99.90;;;;;;6246100;22;20000;-76
2021/11/17 08:45:38;;;;;;;82.55;34.75;;;11.30;99.90;;;;;;6246439;22;20424;-77
2021/11/17 08:48:05;;;;;;;77.00;33.58;;;11.30;99.90;;;;;;6246593;22;20004;-76
2021/11/17 08:50:32;;;;;;;79.82;33.17;;;11.40;99.90;;;;;;6247250;22;20008;-77
2021/11/17 08:52:58;;;;;;;86.57;35.60;;;11.40;99.90;;;;;;6245228;23;20008;-77
2021/11/17 08:55:27;;;;;;;81.53;32.30;;;11.50;99.90;;;;;;6247542;22;20071;-76
2021/11/17 08:57:53;;;;;;;77.70;32.88;;;11.50;99.90;;;;;;6245611;23;20440;-76
2021/11/17 09:00:22;;;;;;;82.50;33.17;;;11.50;99.90;;;;;;6245692;23;20011;-76
2021/11/17 09:02:50;;;;;;;77.63;32.45;;;11.60;99.90;;;;;;6245664;23;20004;-77
2021/11/17 09:05:20;;;;;;;80.15;32.83;;;11.50;99.90;;;;;;6247404;22;20000;-76
2021/11/17 09:07:47;;;;;;;82.70;33.05;;;11.60;99.90;;;;;;6245502;23;20000;-77
2021/11/17 09:10:17;;;;;;;80.63;33.63;;;11.60;99.90;;;;;;6246913;22;20435;-76
2021/11/17 09:12:43;;;;;;;78.20;32.85;;;11.60;99.90;;;;;;6244677;23;20028;-76
2021/11/17 09:15:11;;;;;;;69.75;31.73;;;11.70;99.90;;;;;;6245462;23;20032;-76
2021/11/17 09:17:38;;;;;;;71.38;31.13;;;11.70;99.90;;;;;;6245277;23;20019;-76
2021/11/17 09:20:05;;;;;;;70.97;30.30;;;11.70;99.90;;;;;;6245243;23;20007;-76
2021/11/17 09:22:30;;;;;;;73.70;31.20;;;11.70;99.90;;;;;;6246832;22;20014;-76
2021/11/17 09:24:57;;;;;;;74.13;31.67;;;11.80;99.90;;;;;;6246885;22;20074;-76
2021/11/17 09:27:23;;;;;;;72.82;30.58;;;11.80;99.90;;;;;;6245510;23;20008;-76
2021/11/17 09:29:48;;;;;;;74.30;31.75;;;11.80;99.90;;;;;;6246504;23;20011;-76
2021/11/17 09:32:14;;;;;;;67.25;32.15;;;11.80;99.90;;;;;;6246913;22;20019;-76
2021/11/17 09:34:41;;;;;;;73.72;30.30;;;11.70;99.90;;;;;;6246686;22;20053;-77
2021/11/17 09:37:08;;;;;;;70.10;30.02;;;11.80;99.90;;;;;;6246739;23;20015;-76
2021/11/17 09:39:35;;;;;;;73.28;31.20;;;11.80;99.90;;;;;;6246752;22;20000;-76
2021/11/17 09:42:02;;;;;;;73.18;30.77;;;11.80;99.90;;;;;;6245152;23;20027;-76
2021/11/17 09:44:40;;;;;;;71.45;31.48;;;11.80;99.90;;;;;;6244703;23;20004;-76
2021/11/17 09:47:15;;;;;;;73.53;32.67;;;11.80;99.90;;;;;;6246650;22;20000;-76
2021/11/17 09:50:32;;;;;;;79.95;31.50;;;11.80;99.90;;;;;;6244711;23;20008;-76
2021/11/17 09:53:13;;;;;;;68.70;30.77;;;11.80;99.90;;;;;;6124217;23;20522;-77
2021/11/17 09:56:00;;;;;;;72.15;30.50;;;11.80;99.90;;;;;;6124260;23;20028;-76
2021/11/17 09:58:30;;;;;;;77.40;31.75;;;11.80;99.90;;;;;;6223315;22;20004;-76
2021/11/17 10:01:10;;;;;;;65.72;29.27;;;11.80;99.90;;;;;;6246509;22;20004;-76
2021/11/17 10:03:45;;;;;;;70.95;30.67;;;11.80;99.90;;;;;;6246428;23;20007;-77
2021/11/17 10:14:56;;;;;;;65.97;29.90;;;11.90;99.90;;;;;;6214282;22;20001;-76
2021/11/17 10:17:51;;;;;;;72.45;29.98;;;11.90;99.90;;;;;;6246196;22;20011;-76
2021/11/17 10:21:01;;;;;;;63.83;29.80;;;11.90;99.90;;;;;;6246138;22;20458;-76
2021/11/17 10:23:33;;;;;;;66.45;28.25;;;12.00;99.90;;;;;;6240608;22;20008;-76
2021/11/17 10:26:12;;;;;;;70.10;29.63;;;12.00;99.90;;;;;;6246679;22;20000;-77
2021/11/17 10:29:01;;;;;;;69.97;28.90;;;12.00;99.90;;;;;;6246483;22;20310;-76
2021/11/17 10:31:56;;;;;;;74.25;29.58;;;12.00;99.90;;;;;;6245761;22;20005;-76
2021/11/17 10:34:28;;;;;;;82.93;32.00;;;12.00;99.90;;;;;;6244854;23;20130;-76
2021/11/17 10:37:09;;;;;;;74.60;30.17;;;12.10;99.90;;;;;;6246244;22;20080;-76
2021/11/17 10:39:37;;;;;;;71.15;29.27;;;12.00;99.90;;;;;;6246033;22;20286;-76
2021/11/17 10:42:08;;;;;;;74.00;29.98;;;12.10;99.90;;;;;;6246103;23;20045;-77
2021/11/17 10:44:57;;;;;;;65.43;30.27;;;12.10;99.90;;;;;;6246388;22;20008;-77
2021/11/17 10:47:28;;;;;;;73.50;31.85;;;12.10;99.90;;;;;;6246137;22;20007;-76
2021/11/17 10:50:11;;;;;;;68.88;29.90;;;12.10;99.90;;;;;;6245962;23;20027;-76
2021/11/17 10:52:55;;;;;;;73.70;31.55;;;12.00;99.90;;;;;;6245975;23;19996;-76
2021/11/17 10:55:45;;;;;;;67.35;30.15;;;12.10;99.90;;;;;;6246142;23;19996;-76
2021/11/17 10:58:15;;;;;;;74.10;33.33;;;12.00;99.90;;;;;;6246211;22;20008;-76
2021/11/17 11:00:46;;;;;;;80.45;33.35;;;12.00;99.90;;;;;;6245949;22;20000;-77
2021/11/17 11:03:15;;;;;;;75.00;33.42;;;12.00;99.90;;;;;;6245922;22;20103;-76
2021/11/17 11:05:49;;;;;;;79.68;31.88;;;12.00;99.90;;;;;;6245882;22;20490;-76
2021/11/17 11:08:27;;;;;;;74.78;32.08;;;12.00;99.90;;;;;;6246207;23;20088;-76
2021/11/17 11:10:59;;;;;;;71.70;32.38;;;12.00;99.90;;;;;;6245746;22;20004;-76
2021/11/17 11:13:45;;;;;;;68.00;30.08;;;12.00;99.90;;;;;;6245744;22;20039;-76
2021/11/17 11:16:18;;;;;;;71.85;30.05;;;12.10;99.90;;;;;;6244124;23;20016;-76
2021/11/17 11:19:09;;;;;;;74.53;30.80;;;12.00;99.90;;;;;;6245846;23;20083;-76
2021/11/17 11:21:41;;;;;;;68.00;30.88;;;12.10;99.90;;;;;;6244084;23;20015;-76
2021/11/17 11:24:09;;;;;;;68.50;30.13;;;12.10;99.90;;;;;;6245941;23;20050;-76
2021/11/17 11:27:03;;;;;;;67.65;29.90;;;12.10;99.90;;;;;;6246009;23;20510;-76
2021/11/17 11:29:30;;;;;;;81.78;33.38;;;12.10;99.90;;;;;;6244283;23;20062;-77
2021/11/17 11:31:58;;;;;;;73.55;32.80;;;12.10;99.90;;;;;;6245846;22;20011;-76
2021/11/17 11:34:37;;;;;;;73.90;31.63;;;12.10;99.90;;;;;;6245797;22;20359;-76
2021/11/17 11:37:24;;;;;;;82.90;33.35;;;12.10;99.90;;;;;;6245482;22;20080;-76
2021/11/17 11:39:53;;;;;;;73.72;32.30;;;12.10;99.90;;;;;;6183775;22;20005;-77
2021/11/17 11:42:41;;;;;;;64.82;29.88;;;12.20;99.90;;;;;;6245783;22;20066;-76
2021/11/17 11:45:09;;;;;;;69.15;30.95;;;12.20;99.90;;;;;;6244395;22;20003;-76
2021/11/17 11:47:52;;;;;;;67.70;30.85;;;12.20;99.90;;;;;;6244437;22;19996;-76
2021/11/17 11:50:33;;;;;;;67.10;30.88;;;12.10;99.90;;;;;;6245201;22;20000;-76
2021/11/17 11:53:10;;;;;;;76.20;31.35;;;12.20;99.90;;;;;;6243500;23;20061;-76
2021/11/17 11:55:51;;;;;;;73.15;29.48;;;12.20;99.90;;;;;;6245114;23;20320;-76
2021/11/17 11:58:26;;;;;;;76.17;32.17;;;12.20;99.90;;;;;;6245502;22;20038;-76
2021/11/17 12:01:14;;;;;;;73.45;30.65;;;12.20;99.90;;;;;;6243459;23;20016;-77
2021/11/17 12:04:04;;;;;;;79.57;31.70;;;12.20;99.90;;;;;;6245543;23;19993;-76
2021/11/17 12:06:53;;;;;;;72.57;30.08;;;12.20;99.90;;;;;;6245556;22;20053;-76
2021/11/17 12:09:21;;;;;;;70.75;30.50;;;12.20;99.90;;;;;;6243546;23;20440;-77
2021/11/17 12:12:03;;;;;;;71.32;31.05;;;12.20;99.90;;;;;;6245228;22;20000;-77
2021/11/17 12:14:29;;;;;;;71.95;32.60;;;12.20;99.90;;;;;;6243038;23;20087;-76
2021/11/17 12:16:56;;;;;;;67.82;30.42;;;12.30;99.90;;;;;;6244178;23;20031;-76
2021/11/17 12:19:33;;;;;;;68.22;30.73;;;12.20;99.90;;;;;;6244852;22;20046;-76
2021/11/17 12:22:42;;;;;;;75.25;31.60;;;12.20;99.90;;;;;;6244929;22;20432;-76
2021/11/17 12:25:30;;;;;;;68.60;29.92;;;12.30;99.90;;;;;;6244345;22;20012;-76
2021/11/17 12:28:05;;;;;;;73.30;32.63;;;12.20;99.90;;;;;;6243648;23;20391;-76
2021/11/17 12:30:48;;;;;;;71.38;31.42;;;12.20;99.90;;;;;;6245197;22;20013;-77
2021/11/17 12:33:19;;;;;;;68.97;32.08;;;12.20;99.90;;;;;;6245525;22;20004;-76
2021/11/17 12:36:00;;;;;;;75.93;33.00;;;12.30;99.90;;;;;;6245545;22;20077;-76
2021/11/17 12:38:27;;;;;;;77.45;31.38;;;12.30;99.90;;;;;;6245521;22;20007;-76
2021/11/17 12:41:00;;;;;;;67.40;30.08;;;12.30;99.90;;;;;;6243616;23;20094;-76
2021/11/17 12:43:57;;;;;;;67.40;30.10;;;12.30;99.90;;;;;;6245256;22;20008;-76
2021/11/17 12:46:30;;;;;;;73.63;31.88;;;12.30;99.90;;;;;;6245485;22;20004;-76
2021/11/17 12:49:14;;;;;;;70.65;30.48;;;12.30;99.90;;;;;;6247278;22;20004;-76
2021/11/17 12:51:53;;;;;;;70.18;29.83;;;12.40;99.90;;;;;;6245407;23;20066;-77
2021/11/17 12:54:27;;;;;;;64.25;27.77;;;12.40;99.90;;;;;;6247290;22;19996;-76
2021/11/17 12:57:01;;;;;;;67.15;30.05;;;12.40;99.90;;;;;;6245670;23;20455;-77
2021/11/17 12:59:38;;;;;;;65.22;29.85;;;12.40;99.90;;;;;;6246969;22;19996;-76
2021/11/17 13:02:26;;;;;;;66.70;29.85;;;12.40;99.90;;;;;;6246960;22;20020;-76
2021/11/17 13:05:13;;;;;;;67.38;28.77;;;12.50;99.90;;;;;;6246535;23;20007;-76
2021/11/17 13:08:09;;;;;;;72.57;30.80;;;12.50;99.90;;;;;;6246962;23;20007;-76
2021/11/17 13:10:40;;;;;;;69.13;30.27;;;12.40;99.90;;;;;;6269950;22;20090;-77
2021/11/17 13:13:38;;;;;;;69.80;30.88;;;12.50;99.90;;;;;;6246955;23;20357;-76
2021/11/17 13:16:11;;;;;;;73.88;31.23;;;12.50;99.90;;;;;;6237856;23;20007;-76
2021/11/17 13:18:46;;;;;;;75.68;30.95;;;12.50;99.90;;;;;;6246956;22;20079;-76
2021/11/17 13:21:21;;;;;;;65.63;28.83;;;12.50;99.90;;;;;;6247205;22;20015;-76
2021/11/17 13:23:59;;;;;;;67.82;29.55;;;12.40;99.90;;;;;;6245186;23;20082;-77
2021/11/17 13:26:33;;;;;;;65.85;30.25;;;12.50;99.90;;;;;;6246643;23;20008;-76
2021/11/17 13:29:18;;;;;;;62.63;29.73;;;12.50;99.90;;;;;;6245405;23;20054;-76
2021/11/17 13:31:44;;;;;;;64.82;29.17;;;12.50;99.90;;;;;;6244995;23;20083;-76
2021/11/17 13:34:14;;;;;;;66.85;28.38;;;12.50;99.90;;;;;;6246837;22;20004;-76
2021/11/17 13:36:48;;;;;;;67.15;29.50;;;12.50;99.90;;;;;;6246737;22;20046;-76
2021/11/17 13:39:21;;;;;;;66.38;28.70;;;12.60;99.90;;;;;;6246633;22;20000;-76
2021/11/17 13:41:49;;;;;;;68.03;28.73;;;12.60;99.90;;;;;;6245056;23;20340;-76
2021/11/17 13:44:22;;;;;;;61.42;28.73;;;12.60;99.90;;;;;;6246298;22;20004;-77
2021/11/17 13:47:10;;;;;;;67.97;29.90;;;12.60;99.90;;;;;;6246864;22;20122;-76
2021/11/17 13:49:43;;;;;;;66.00;29.30;;;12.60;99.90;;;;;;6246626;22;20533;-76
2021/11/17 13:52:11;;;;;;;71.38;28.90;;;12.70;99.90;;;;;;6244864;23;20075;-76
2021/11/17 13:54:38;;;;;;;60.28;28.45;;;12.70;99.90;;;;;;6246730;22;20000;-77
2021/11/17 13:57:08;;;;;;;65.32;28.25;;;12.70;99.90;;;;;;6246909;22;20028;-76
2021/11/17 13:59:34;;;;;;;71.25;29.73;;;12.70;99.90;;;;;;6246236;22;20029;-76
2021/11/17 14:02:00;;;;;;;61.08;27.77;;;12.70;99.90;;;;;;6246764;22;20027;-76
2021/11/17 14:04:27;;;;;;;64.72;29.20;;;12.70;99.90;;;;;;6245131;23;20004;-76
2021/11/17 14:06:54;;;;;;;61.00;28.63;;;12.80;99.90;;;;;;6245491;23;20374;-76
2021/11/17 14:09:20;;;;;;;63.45;28.95;;;12.80;99.90;;;;;;6245725;22;20428;-76
2021/11/17 14:11:46;;;;;;;71.03;30.08;;;12.80;99.90;;;;;;6246268;22;20023;-76
2021/11/17 14:14:12;;;;;;;63.28;29.00;;;12.80;99.90;;;;;;6244719;23;20000;-76
2021/11/17 14:16:38;;;;;;;61.35;28.58;;;12.90;99.90;;;;;;6246366;23;20040;-76
2021/11/17 14:19:04;;;;;;;61.42;28.52;;;12.80;99.90;;;;;;6245838;23;20332;-76
2021/11/17 14:21:30;;;;;;;64.15;29.25;;;12.90;99.90;;;;;;6244988;23;20058;-76
2021/11/17 14:23:56;;;;;;;68.85;29.40;;;12.90;99.90;;;;;;6246322;22;20078;-76
2021/11/17 14:26:22;;;;;;;68.85;29.73;;;12.90;99.90;;;;;;6246434;23;20036;-77
2021/11/17 14:28:58;;;;;;;70.47;30.23;;;12.90;99.90;;;;;;6246097;23;19999;-76
2021/11/17 14:31:55;;;;;;;63.38;29.13;;;12.90;99.90;;;;;;6245741;22;20061;-76
2021/11/17 14:34:21;;;;;;;61.88;28.58;;;12.90;99.90;;;;;;6246163;22;20459;-76
2021/11/17 14:37:02;;;;;;;70.25;29.45;;;12.90;99.90;;;;;;6246187;22;19997;-76
2021/11/17 14:39:27;;;;;;;73.38;30.85;;;12.90;99.90;;;;;;6244223;23;20223;-76
2021/11/17 14:41:53;;;;;;;71.97;30.10;;;12.80;99.90;;;;;;6245936;23;20440;-76
2021/11/17 14:44:19;;;;;;;61.35;27.27;;;12.90;99.90;;;;;;6244200;23;20008;-76
2021/11/17 14:46:44;;;;;;;74.55;29.52;;;12.80;99.90;;;;;;6246304;22;20438;-76
2021/11/17 14:49:11;;;;;;;67.30;27.52;;;12.80;99.90;;;;;;6245395;22;20000;-76
2021/11/17 14:51:39;;;;;;;65.47;28.70;;;12.80;99.90;;;;;;6243420;23;20015;-76
2021/11/17 14:54:05;;;;;;;73.65;31.25;;;12.80;99.90;;;;;;6243505;23;20010;-76
2021/11/17 14:56:31;;;;;;;79.30;31.30;;;12.80;99.90;;;;;;6245026;22;20004;-76
2021/11/17 14:58:57;;;;;;;74.63;29.92;;;12.80;99.90;;;;;;6243366;23;20450;-77
2021/11/17 15:01:31;;;;;;;63.40;29.48;;;12.80;99.90;;;;;;6245377;22;20008;-76
2021/11/17 15:03:57;;;;;;;63.80;29.15;;;12.70;99.90;;;;;;6243148;23;20011;-76
2021/11/17 15:06:25;;;;;;;68.07;30.52;;;12.70;99.90;;;;;;6245683;22;20011;-76
2021/11/17 15:08:51;;;;;;;76.22;31.95;;;12.70;99.90;;;;;;6245750;22;20057;-76
2021/11/17 15:11:18;;;;;;;68.35;30.55;;;12.70;99.90;;;;;;6245435;22;20007;-76
2021/11/17 15:13:44;;;;;;;68.10;28.50;;;12.60;99.90;;;;;;6245779;22;20348;-76
2021/11/17 15:16:11;;;;;;;72.88;31.67;;;12.60;99.90;;;;;;6245807;22;19997;-76
2021/11/17 15:18:40;;;;;;;72.53;30.35;;;12.60;99.90;;;;;;6245774;22;20091;-76
2021/11/17 15:21:07;;;;;;;71.85;31.52;;;12.50;99.90;;;;;;6245870;22;20105;-76
2021/11/17 15:23:33;;;;;;;78.22;32.30;;;12.50;99.90;;;;;;6245817;22;20007;-77
2021/11/17 15:26:01;;;;;;;77.70;30.92;;;12.50;99.90;;;;;;6245825;22;20004;-76
2021/11/17 15:28:37;;;;;;;76.93;34.38;;;12.40;99.90;;;;;;6243888;23;20004;-76
2021/11/17 15:31:12;;;;;;;84.22;35.80;;;12.30;99.90;;;;;;6243870;23;20008;-76
2021/11/17 15:33:38;;;;;;;78.38;33.92;;;12.30;99.90;;;;;;6245677;22;20000;-76
2021/11/17 15:36:07;;;;;;;67.60;30.58;;;12.20;99.90;;;;;;6245316;23;20428;-77
2021/11/17 15:38:37;;;;;;;67.28;30.67;;;12.20;99.90;;;;;;6243576;23;20428;-76
2021/11/17 15:41:05;;;;;;;24.75;14.32;;;12.10;99.90;;;;;;6243689;23;20008;-79
2021/11/17 15:43:32;;;;;;;59.42;27.85;;;12.50;99.90;;;;;;6244659;23;20016;-76
2021/11/17 15:45:58;;;;;;;71.30;33.13;;;12.50;99.90;;;;;;6245468;22;20115;-76